sensor_id;sensor_type;location;lat;lon;timestamp;P1;durP1;ratioP1;P2;durP2;ratioP2
12445;SDS011;6287;50.984;7.022;2022-11-15T00:00:52;6.20;;;3.77;;
12445;SDS011;6287;50.984;7.022;2022-11-15T00:03:18;7.23;;;3.80;;
12445;SDS011;6287;50.984;7.022;2022-11-15T00:05:47;6.33;;;3.97;;
12445;SDS011;6287;50.984;7.022;2022-11-15T00:08:17;5.43;;;3.57;;
12445;SDS011;6287;50.984;7.022;2022-11-15T00:10:54;5.17;;;3.60;;
12445;SDS011;6287;50.984;7.022;2022-11-15T00:13:21;4.93;;;3.20;;
12445;SDS011;6287;50.984;7.022;2022-11-15T00:15:49;5.43;;;3.50;;
12445;SDS011;6287;50.984;7.022;2022-11-15T00:18:17;6.13;;;3.50;;
12445;SDS011;6287;50.984;7.022;2022-11-15T00:20:45;3.97;;;3.23;;
12445;SDS011;6287;50.984;7.022;2022-11-15T00:23:13;5.27;;;3.87;;
12445;SDS011;6287;50.984;7.022;2022-11-15T00:25:42;3.90;;;3.50;;
12445;SDS011;6287;50.984;7.022;2022-11-15T00:28:07;5.10;;;3.77;;
12445;SDS011;6287;50.984;7.022;2022-11-15T00:30:33;7.40;;;3.33;;
12445;SDS011;6287;50.984;7.022;2022-11-15T00:33:01;4.70;;;3.23;;
12445;SDS011;6287;50.984;7.022;2022-11-15T00:35:28;4.77;;;3.90;;
12445;SDS011;6287;50.984;7.022;2022-11-15T00:37:55;5.00;;;3.20;;
12445;SDS011;6287;50.984;7.022;2022-11-15T00:40:21;3.93;;;3.17;;
12445;SDS011;6287;50.984;7.022;2022-11-15T00:42:49;5.13;;;3.53;;
12445;SDS011;6287;50.984;7.022;2022-11-15T00:45:16;4.80;;;3.77;;
12445;SDS011;6287;50.984;7.022;2022-11-15T00:47:45;4.90;;;3.23;;
12445;SDS011;6287;50.984;7.022;2022-11-15T00:50:13;6.07;;;3.47;;
12445;SDS011;6287;50.984;7.022;2022-11-15T00:52:41;5.60;;;3.33;;
12445;SDS011;6287;50.984;7.022;2022-11-15T00:55:08;5.47;;;3.60;;
12445;SDS011;6287;50.984;7.022;2022-11-15T00:57:41;8.10;;;3.80;;
12445;SDS011;6287;50.984;7.022;2022-11-15T01:00:07;5.13;;;3.83;;
12445;SDS011;6287;50.984;7.022;2022-11-15T01:02:35;5.13;;;4.10;;
12445;SDS011;6287;50.984;7.022;2022-11-15T01:05:03;5.40;;;3.70;;
12445;SDS011;6287;50.984;7.022;2022-11-15T01:07:32;4.20;;;3.63;;
12445;SDS011;6287;50.984;7.022;2022-11-15T01:09:57;6.10;;;3.90;;
12445;SDS011;6287;50.984;7.022;2022-11-15T01:12:25;6.00;;;4.17;;
12445;SDS011;6287;50.984;7.022;2022-11-15T01:14:53;4.50;;;3.73;;
12445;SDS011;6287;50.984;7.022;2022-11-15T01:17:19;5.53;;;4.03;;
12445;SDS011;6287;50.984;7.022;2022-11-15T01:19:45;3.97;;;3.57;;
12445;SDS011;6287;50.984;7.022;2022-11-15T01:22:13;4.23;;;3.17;;
12445;SDS011;6287;50.984;7.022;2022-11-15T01:24:41;4.50;;;3.73;;
12445;SDS011;6287;50.984;7.022;2022-11-15T01:27:11;5.03;;;3.57;;
12445;SDS011;6287;50.984;7.022;2022-11-15T01:29:37;4.90;;;3.63;;
12445;SDS011;6287;50.984;7.022;2022-11-15T01:32:02;5.13;;;3.77;;
12445;SDS011;6287;50.984;7.022;2022-11-15T01:34:28;10.40;;;3.77;;
12445;SDS011;6287;50.984;7.022;2022-11-15T01:36:56;3.87;;;3.40;;
12445;SDS011;6287;50.984;7.022;2022-11-15T01:39:22;6.10;;;3.80;;
12445;SDS011;6287;50.984;7.022;2022-11-15T01:41:50;6.53;;;4.23;;
12445;SDS011;6287;50.984;7.022;2022-11-15T01:47:00;6.37;;;3.53;;
12445;SDS011;6287;50.984;7.022;2022-11-15T01:49:32;4.40;;;3.70;;
12445;SDS011;6287;50.984;7.022;2022-11-15T01:52:03;5.53;;;3.90;;
12445;SDS011;6287;50.984;7.022;2022-11-15T01:54:32;4.43;;;3.57;;
12445;SDS011;6287;50.984;7.022;2022-11-15T01:57:04;4.17;;;3.50;;
12445;SDS011;6287;50.984;7.022;2022-11-15T01:59:36;3.90;;;3.17;;
12445;SDS011;6287;50.984;7.022;2022-11-15T02:02:07;6.57;;;3.70;;
12445;SDS011;6287;50.984;7.022;2022-11-15T02:04:34;5.77;;;3.57;;
12445;SDS011;6287;50.984;7.022;2022-11-15T02:07:05;5.73;;;3.73;;
12445;SDS011;6287;50.984;7.022;2022-11-15T02:09:33;5.87;;;3.70;;
12445;SDS011;6287;50.984;7.022;2022-11-15T02:12:03;5.70;;;3.60;;
12445;SDS011;6287;50.984;7.022;2022-11-15T02:14:30;3.97;;;3.37;;
12445;SDS011;6287;50.984;7.022;2022-11-15T02:17:07;4.67;;;3.57;;
12445;SDS011;6287;50.984;7.022;2022-11-15T02:36:01;4.93;;;3.43;;
12445;SDS011;6287;50.984;7.022;2022-11-15T02:41:03;6.37;;;4.00;;
12445;SDS011;6287;50.984;7.022;2022-11-15T02:43:45;5.30;;;3.43;;
12445;SDS011;6287;50.984;7.022;2022-11-15T02:49:32;5.97;;;3.30;;
12445;SDS011;6287;50.984;7.022;2022-11-15T02:52:01;4.37;;;3.40;;
12445;SDS011;6287;50.984;7.022;2022-11-15T02:54:31;4.47;;;3.23;;
12445;SDS011;6287;50.984;7.022;2022-11-15T02:57:05;6.43;;;3.60;;
12445;SDS011;6287;50.984;7.022;2022-11-15T03:15:50;4.53;;;3.33;;
12445;SDS011;6287;50.984;7.022;2022-11-15T03:18:35;6.77;;;2.97;;
12445;SDS011;6287;50.984;7.022;2022-11-15T03:21:04;4.47;;;3.23;;
12445;SDS011;6287;50.984;7.022;2022-11-15T03:23:32;4.47;;;2.93;;
12445;SDS011;6287;50.984;7.022;2022-11-15T03:26:00;4.70;;;3.50;;
12445;SDS011;6287;50.984;7.022;2022-11-15T03:28:31;5.13;;;3.43;;
12445;SDS011;6287;50.984;7.022;2022-11-15T03:31:04;3.10;;;2.73;;
12445;SDS011;6287;50.984;7.022;2022-11-15T03:33:52;3.60;;;2.50;;
12445;SDS011;6287;50.984;7.022;2022-11-15T03:36:24;3.93;;;3.07;;
12445;SDS011;6287;50.984;7.022;2022-11-15T03:38:53;4.27;;;2.80;;
12445;SDS011;6287;50.984;7.022;2022-11-15T03:41:24;3.10;;;2.80;;
12445;SDS011;6287;50.984;7.022;2022-11-15T03:44:40;3.00;;;2.70;;
12445;SDS011;6287;50.984;7.022;2022-11-15T03:47:31;3.20;;;2.90;;
12445;SDS011;6287;50.984;7.022;2022-11-15T03:50:05;3.17;;;2.87;;
12445;SDS011;6287;50.984;7.022;2022-11-15T03:52:44;5.27;;;2.93;;
12445;SDS011;6287;50.984;7.022;2022-11-15T03:55:13;4.30;;;3.10;;
12445;SDS011;6287;50.984;7.022;2022-11-15T03:57:41;5.37;;;3.10;;
12445;SDS011;6287;50.984;7.022;2022-11-15T04:00:07;4.00;;;3.10;;
12445;SDS011;6287;50.984;7.022;2022-11-15T04:02:36;4.93;;;3.00;;
12445;SDS011;6287;50.984;7.022;2022-11-15T04:05:06;5.17;;;3.30;;
12445;SDS011;6287;50.984;7.022;2022-11-15T04:07:34;4.40;;;3.43;;
12445;SDS011;6287;50.984;7.022;2022-11-15T04:10:02;4.90;;;2.70;;
12445;SDS011;6287;50.984;7.022;2022-11-15T04:12:33;4.97;;;2.90;;
12445;SDS011;6287;50.984;7.022;2022-11-15T04:15:22;3.63;;;3.00;;
12445;SDS011;6287;50.984;7.022;2022-11-15T04:17:49;3.70;;;3.13;;
12445;SDS011;6287;50.984;7.022;2022-11-15T04:23:00;4.07;;;3.03;;
12445;SDS011;6287;50.984;7.022;2022-11-15T04:25:52;3.63;;;3.03;;
12445;SDS011;6287;50.984;7.022;2022-11-15T04:28:19;3.43;;;3.10;;
12445;SDS011;6287;50.984;7.022;2022-11-15T04:30:45;3.40;;;3.10;;
12445;SDS011;6287;50.984;7.022;2022-11-15T04:33:14;3.53;;;3.03;;
12445;SDS011;6287;50.984;7.022;2022-11-15T04:35:40;5.73;;;3.07;;
12445;SDS011;6287;50.984;7.022;2022-11-15T04:38:08;3.10;;;2.80;;
12445;SDS011;6287;50.984;7.022;2022-11-15T04:40:35;3.40;;;3.10;;
12445;SDS011;6287;50.984;7.022;2022-11-15T04:43:08;3.50;;;2.87;;
12445;SDS011;6287;50.984;7.022;2022-11-15T04:45:36;3.90;;;3.07;;
12445;SDS011;6287;50.984;7.022;2022-11-15T04:48:04;3.47;;;3.17;;
12445;SDS011;6287;50.984;7.022;2022-11-15T04:50:32;3.50;;;2.90;;
12445;SDS011;6287;50.984;7.022;2022-11-15T04:52:58;4.87;;;2.83;;
12445;SDS011;6287;50.984;7.022;2022-11-15T04:55:23;4.53;;;3.33;;
12445;SDS011;6287;50.984;7.022;2022-11-15T04:57:56;4.37;;;3.50;;
12445;SDS011;6287;50.984;7.022;2022-11-15T05:00:23;4.37;;;3.33;;
12445;SDS011;6287;50.984;7.022;2022-11-15T05:02:51;3.73;;;3.30;;
12445;SDS011;6287;50.984;7.022;2022-11-15T05:05:35;4.10;;;3.23;;
12445;SDS011;6287;50.984;7.022;2022-11-15T05:08:03;4.43;;;3.37;;
12445;SDS011;6287;50.984;7.022;2022-11-15T05:10:29;4.17;;;3.10;;
12445;SDS011;6287;50.984;7.022;2022-11-15T05:12:57;2.90;;;2.70;;
12445;SDS011;6287;50.984;7.022;2022-11-15T05:15:23;4.27;;;3.00;;
12445;SDS011;6287;50.984;7.022;2022-11-15T05:17:57;3.63;;;2.90;;
12445;SDS011;6287;50.984;7.022;2022-11-15T05:20:27;4.07;;;3.00;;
12445;SDS011;6287;50.984;7.022;2022-11-15T05:22:55;3.67;;;2.90;;
12445;SDS011;6287;50.984;7.022;2022-11-15T05:25:23;3.40;;;3.10;;
12445;SDS011;6287;50.984;7.022;2022-11-15T05:27:51;3.57;;;3.10;;
12445;SDS011;6287;50.984;7.022;2022-11-15T05:30:17;2.93;;;2.70;;
12445;SDS011;6287;50.984;7.022;2022-11-15T05:32:43;6.47;;;2.80;;
12445;SDS011;6287;50.984;7.022;2022-11-15T05:35:18;2.70;;;2.47;;
12445;SDS011;6287;50.984;7.022;2022-11-15T05:37:50;4.07;;;2.53;;
12445;SDS011;6287;50.984;7.022;2022-11-15T05:40:16;4.27;;;2.77;;
12445;SDS011;6287;50.984;7.022;2022-11-15T05:42:42;4.03;;;2.30;;
12445;SDS011;6287;50.984;7.022;2022-11-15T05:45:09;2.83;;;2.63;;
12445;SDS011;6287;50.984;7.022;2022-11-15T05:47:36;2.87;;;2.67;;
12445;SDS011;6287;50.984;7.022;2022-11-15T05:50:04;4.27;;;3.10;;
12445;SDS011;6287;50.984;7.022;2022-11-15T05:52:33;3.50;;;2.43;;
12445;SDS011;6287;50.984;7.022;2022-11-15T05:55:01;3.40;;;2.60;;
12445;SDS011;6287;50.984;7.022;2022-11-15T05:57:29;4.87;;;2.30;;
12445;SDS011;6287;50.984;7.022;2022-11-15T05:59:57;4.97;;;2.60;;
12445;SDS011;6287;50.984;7.022;2022-11-15T06:02:23;3.70;;;2.20;;
12445;SDS011;6287;50.984;7.022;2022-11-15T06:04:51;2.93;;;2.27;;
12445;SDS011;6287;50.984;7.022;2022-11-15T06:07:18;3.13;;;2.13;;
12445;SDS011;6287;50.984;7.022;2022-11-15T06:09:46;2.47;;;2.27;;
12445;SDS011;6287;50.984;7.022;2022-11-15T06:12:14;4.60;;;2.77;;
12445;SDS011;6287;50.984;7.022;2022-11-15T06:14:42;2.90;;;2.60;;
12445;SDS011;6287;50.984;7.022;2022-11-15T06:17:08;4.53;;;2.93;;
12445;SDS011;6287;50.984;7.022;2022-11-15T06:19:36;2.80;;;2.60;;
12445;SDS011;6287;50.984;7.022;2022-11-15T06:22:01;3.33;;;2.47;;
12445;SDS011;6287;50.984;7.022;2022-11-15T06:24:27;3.10;;;2.50;;
12445;SDS011;6287;50.984;7.022;2022-11-15T06:26:54;2.83;;;2.27;;
12445;SDS011;6287;50.984;7.022;2022-11-15T06:29:23;2.40;;;2.10;;
12445;SDS011;6287;50.984;7.022;2022-11-15T06:31:49;2.50;;;2.30;;
12445;SDS011;6287;50.984;7.022;2022-11-15T06:34:17;2.90;;;2.33;;
12445;SDS011;6287;50.984;7.022;2022-11-15T06:36:43;2.30;;;2.10;;
12445;SDS011;6287;50.984;7.022;2022-11-15T06:39:09;3.67;;;2.20;;
12445;SDS011;6287;50.984;7.022;2022-11-15T06:41:36;2.57;;;2.37;;
12445;SDS011;6287;50.984;7.022;2022-11-15T06:44:02;2.73;;;2.00;;
12445;SDS011;6287;50.984;7.022;2022-11-15T06:46:30;2.10;;;1.90;;
12445;SDS011;6287;50.984;7.022;2022-11-15T06:48:56;2.63;;;2.00;;
12445;SDS011;6287;50.984;7.022;2022-11-15T06:51:23;3.10;;;2.07;;
12445;SDS011;6287;50.984;7.022;2022-11-15T06:53:51;1.60;;;1.50;;
12445;SDS011;6287;50.984;7.022;2022-11-15T06:56:22;2.53;;;2.33;;
12445;SDS011;6287;50.984;7.022;2022-11-15T06:58:49;2.30;;;2.00;;
12445;SDS011;6287;50.984;7.022;2022-11-15T07:01:15;2.17;;;2.07;;
12445;SDS011;6287;50.984;7.022;2022-11-15T07:03:43;2.97;;;2.33;;
12445;SDS011;6287;50.984;7.022;2022-11-15T07:06:09;2.13;;;1.90;;
12445;SDS011;6287;50.984;7.022;2022-11-15T07:08:35;3.43;;;2.27;;
12445;SDS011;6287;50.984;7.022;2022-11-15T07:11:06;2.23;;;1.97;;
12445;SDS011;6287;50.984;7.022;2022-11-15T07:13:36;3.07;;;2.10;;
12445;SDS011;6287;50.984;7.022;2022-11-15T07:18:35;3.13;;;2.27;;
12445;SDS011;6287;50.984;7.022;2022-11-15T07:21:04;2.67;;;2.47;;
12445;SDS011;6287;50.984;7.022;2022-11-15T07:23:32;4.47;;;2.53;;
12445;SDS011;6287;50.984;7.022;2022-11-15T07:25:58;3.87;;;2.30;;
12445;SDS011;6287;50.984;7.022;2022-11-15T07:28:24;2.73;;;2.20;;
12445;SDS011;6287;50.984;7.022;2022-11-15T07:30:53;4.40;;;2.57;;
12445;SDS011;6287;50.984;7.022;2022-11-15T07:33:19;2.47;;;2.33;;
12445;SDS011;6287;50.984;7.022;2022-11-15T07:35:47;3.83;;;2.40;;
12445;SDS011;6287;50.984;7.022;2022-11-15T07:38:17;2.27;;;1.90;;
12445;SDS011;6287;50.984;7.022;2022-11-15T07:40:44;3.87;;;2.10;;
12445;SDS011;6287;50.984;7.022;2022-11-15T07:43:13;4.23;;;2.03;;
12445;SDS011;6287;50.984;7.022;2022-11-15T07:45:42;2.67;;;2.10;;
12445;SDS011;6287;50.984;7.022;2022-11-15T07:48:09;2.60;;;1.97;;
12445;SDS011;6287;50.984;7.022;2022-11-15T07:50:34;2.83;;;2.03;;
12445;SDS011;6287;50.984;7.022;2022-11-15T07:53:00;2.00;;;1.73;;
12445;SDS011;6287;50.984;7.022;2022-11-15T07:55:26;1.97;;;1.80;;
12445;SDS011;6287;50.984;7.022;2022-11-15T07:58:04;2.23;;;1.77;;
12445;SDS011;6287;50.984;7.022;2022-11-15T08:00:34;2.57;;;1.73;;
12445;SDS011;6287;50.984;7.022;2022-11-15T08:03:03;3.97;;;2.20;;
12445;SDS011;6287;50.984;7.022;2022-11-15T08:05:31;2.00;;;1.90;;
12445;SDS011;6287;50.984;7.022;2022-11-15T08:08:00;2.50;;;1.70;;
12445;SDS011;6287;50.984;7.022;2022-11-15T08:10:28;3.37;;;1.77;;
12445;SDS011;6287;50.984;7.022;2022-11-15T08:13:04;2.53;;;1.70;;
12445;SDS011;6287;50.984;7.022;2022-11-15T08:15:37;2.03;;;1.80;;
12445;SDS011;6287;50.984;7.022;2022-11-15T08:18:06;2.30;;;1.70;;
12445;SDS011;6287;50.984;7.022;2022-11-15T08:20:36;2.10;;;1.63;;
12445;SDS011;6287;50.984;7.022;2022-11-15T08:23:04;2.27;;;1.73;;
12445;SDS011;6287;50.984;7.022;2022-11-15T08:25:34;1.93;;;1.80;;
12445;SDS011;6287;50.984;7.022;2022-11-15T08:28:03;2.80;;;1.70;;
12445;SDS011;6287;50.984;7.022;2022-11-15T08:30:30;2.53;;;1.80;;
12445;SDS011;6287;50.984;7.022;2022-11-15T08:32:59;1.63;;;1.50;;
12445;SDS011;6287;50.984;7.022;2022-11-15T08:35:24;2.00;;;1.70;;
12445;SDS011;6287;50.984;7.022;2022-11-15T08:37:52;3.33;;;1.77;;
12445;SDS011;6287;50.984;7.022;2022-11-15T08:40:22;2.97;;;1.87;;
12445;SDS011;6287;50.984;7.022;2022-11-15T08:42:51;2.77;;;1.67;;
12445;SDS011;6287;50.984;7.022;2022-11-15T08:45:17;1.57;;;1.47;;
12445;SDS011;6287;50.984;7.022;2022-11-15T08:47:42;1.87;;;1.57;;
12445;SDS011;6287;50.984;7.022;2022-11-15T08:50:13;2.37;;;1.53;;
12445;SDS011;6287;50.984;7.022;2022-11-15T08:52:43;1.97;;;1.80;;
12445;SDS011;6287;50.984;7.022;2022-11-15T08:55:13;2.40;;;1.80;;
12445;SDS011;6287;50.984;7.022;2022-11-15T08:57:40;2.50;;;2.10;;
12445;SDS011;6287;50.984;7.022;2022-11-15T09:00:06;2.13;;;1.67;;
12445;SDS011;6287;50.984;7.022;2022-11-15T09:02:34;2.53;;;1.67;;
12445;SDS011;6287;50.984;7.022;2022-11-15T09:05:05;1.47;;;1.30;;
12445;SDS011;6287;50.984;7.022;2022-11-15T09:07:31;2.03;;;1.40;;
12445;SDS011;6287;50.984;7.022;2022-11-15T09:09:57;1.50;;;1.40;;
12445;SDS011;6287;50.984;7.022;2022-11-15T09:12:23;2.43;;;1.40;;
12445;SDS011;6287;50.984;7.022;2022-11-15T09:14:49;1.53;;;1.43;;
12445;SDS011;6287;50.984;7.022;2022-11-15T09:17:17;2.10;;;1.20;;
12445;SDS011;6287;50.984;7.022;2022-11-15T09:19:45;2.97;;;1.40;;
12445;SDS011;6287;50.984;7.022;2022-11-15T09:22:15;1.03;;;1.03;;
12445;SDS011;6287;50.984;7.022;2022-11-15T09:24:43;1.53;;;1.10;;
12445;SDS011;6287;50.984;7.022;2022-11-15T09:27:10;1.00;;;1.00;;
12445;SDS011;6287;50.984;7.022;2022-11-15T09:29:41;0.90;;;0.90;;
12445;SDS011;6287;50.984;7.022;2022-11-15T09:32:09;0.90;;;0.90;;
12445;SDS011;6287;50.984;7.022;2022-11-15T09:34:36;1.60;;;1.00;;
12445;SDS011;6287;50.984;7.022;2022-11-15T09:37:04;0.70;;;0.70;;
12445;SDS011;6287;50.984;7.022;2022-11-15T09:39:30;1.17;;;0.73;;
12445;SDS011;6287;50.984;7.022;2022-11-15T09:41:58;0.73;;;0.73;;
12445;SDS011;6287;50.984;7.022;2022-11-15T09:50:08;1.60;;;0.70;;
12445;SDS011;6287;50.984;7.022;2022-11-15T09:52:41;0.80;;;0.80;;
12445;SDS011;6287;50.984;7.022;2022-11-15T09:55:10;1.80;;;0.90;;
12445;SDS011;6287;50.984;7.022;2022-11-15T09:57:57;1.10;;;0.80;;
12445;SDS011;6287;50.984;7.022;2022-11-15T10:00:35;1.13;;;1.00;;
12445;SDS011;6287;50.984;7.022;2022-11-15T10:03:14;2.17;;;0.83;;
12445;SDS011;6287;50.984;7.022;2022-11-15T10:05:57;1.80;;;0.77;;
12445;SDS011;6287;50.984;7.022;2022-11-15T10:11:00;0.87;;;0.60;;
12445;SDS011;6287;50.984;7.022;2022-11-15T10:13:29;0.67;;;0.60;;
12445;SDS011;6287;50.984;7.022;2022-11-15T10:16:02;0.80;;;0.77;;
12445;SDS011;6287;50.984;7.022;2022-11-15T10:18:31;0.60;;;0.60;;
12445;SDS011;6287;50.984;7.022;2022-11-15T10:21:15;0.50;;;0.50;;
12445;SDS011;6287;50.984;7.022;2022-11-15T10:23:44;2.13;;;0.60;;
12445;SDS011;6287;50.984;7.022;2022-11-15T10:26:12;0.83;;;0.50;;
12445;SDS011;6287;50.984;7.022;2022-11-15T10:28:41;0.40;;;0.40;;
12445;SDS011;6287;50.984;7.022;2022-11-15T10:33:58;0.57;;;0.50;;
12445;SDS011;6287;50.984;7.022;2022-11-15T10:36:37;2.03;;;0.60;;
12445;SDS011;6287;50.984;7.022;2022-11-15T10:39:03;0.83;;;0.50;;
12445;SDS011;6287;50.984;7.022;2022-11-15T10:41:30;0.40;;;0.40;;
12445;SDS011;6287;50.984;7.022;2022-11-15T10:46:48;0.30;;;0.30;;
12445;SDS011;6287;50.984;7.022;2022-11-15T10:49:19;1.13;;;0.40;;
12445;SDS011;6287;50.984;7.022;2022-11-15T10:54:34;0.33;;;0.30;;
12445;SDS011;6287;50.984;7.022;2022-11-15T10:57:00;1.00;;;0.40;;
12445;SDS011;6287;50.984;7.022;2022-11-15T10:59:33;0.37;;;0.37;;
12445;SDS011;6287;50.984;7.022;2022-11-15T11:02:21;0.40;;;0.40;;
12445;SDS011;6287;50.984;7.022;2022-11-15T11:04:59;0.53;;;0.43;;
12445;SDS011;6287;50.984;7.022;2022-11-15T11:07:31;3.17;;;0.60;;
12445;SDS011;6287;50.984;7.022;2022-11-15T11:10:05;0.30;;;0.30;;
12445;SDS011;6287;50.984;7.022;2022-11-15T11:12:43;0.43;;;0.40;;
12445;SDS011;6287;50.984;7.022;2022-11-15T11:15:12;1.17;;;0.30;;
12445;SDS011;6287;50.984;7.022;2022-11-15T11:20:36;0.40;;;0.40;;
12445;SDS011;6287;50.984;7.022;2022-11-15T11:28:33;0.90;;;0.40;;
12445;SDS011;6287;50.984;7.022;2022-11-15T11:36:47;0.60;;;0.40;;
12445;SDS011;6287;50.984;7.022;2022-11-15T11:44:30;0.43;;;0.43;;
12445;SDS011;6287;50.984;7.022;2022-11-15T11:47:29;2.10;;;0.50;;
12445;SDS011;6287;50.984;7.022;2022-11-15T11:50:04;0.50;;;0.40;;
12445;SDS011;6287;50.984;7.022;2022-11-15T11:55:16;0.20;;;0.20;;
12445;SDS011;6287;50.984;7.022;2022-11-15T12:00:49;2.10;;;0.43;;
12445;SDS011;6287;50.984;7.022;2022-11-15T12:13:44;1.07;;;0.50;;
12445;SDS011;6287;50.984;7.022;2022-11-15T12:16:36;1.47;;;0.70;;
12445;SDS011;6287;50.984;7.022;2022-11-15T12:19:03;1.50;;;0.57;;
12445;SDS011;6287;50.984;7.022;2022-11-15T12:24:34;0.60;;;0.60;;
12445;SDS011;6287;50.984;7.022;2022-11-15T12:27:19;0.40;;;0.40;;
12445;SDS011;6287;50.984;7.022;2022-11-15T12:30:00;0.90;;;0.40;;
12445;SDS011;6287;50.984;7.022;2022-11-15T12:32:38;1.13;;;0.35;;
12445;SDS011;6287;50.984;7.022;2022-11-15T12:35:56;2.28;;;0.40;;
12445;SDS011;6287;50.984;7.022;2022-11-15T12:38:11;0.68;;;0.30;;
12445;SDS011;6287;50.984;7.022;2022-11-15T12:40:38;0.63;;;0.47;;
12445;SDS011;6287;50.984;7.022;2022-11-15T12:43:40;0.30;;;0.30;;
12445;SDS011;6287;50.984;7.022;2022-11-15T12:46:10;0.55;;;0.32;;
12445;SDS011;6287;50.984;7.022;2022-11-15T12:51:20;0.22;;;0.22;;
12445;SDS011;6287;50.984;7.022;2022-11-15T12:53:50;1.37;;;0.50;;
12445;SDS011;6287;50.984;7.022;2022-11-15T12:56:17;0.67;;;0.30;;
12445;SDS011;6287;50.984;7.022;2022-11-15T13:12:03;0.77;;;0.60;;
12445;SDS011;6287;50.984;7.022;2022-11-15T13:19:51;1.30;;;0.90;;
12445;SDS011;6287;50.984;7.022;2022-11-15T13:22:40;0.97;;;0.53;;
12445;SDS011;6287;50.984;7.022;2022-11-15T13:28:09;0.60;;;0.60;;
12445;SDS011;6287;50.984;7.022;2022-11-15T13:33:28;1.57;;;0.83;;
12445;SDS011;6287;50.984;7.022;2022-11-15T13:36:01;0.70;;;0.63;;
12445;SDS011;6287;50.984;7.022;2022-11-15T13:38:37;0.67;;;0.60;;
12445;SDS011;6287;50.984;7.022;2022-11-15T13:43:46;0.70;;;0.70;;
12445;SDS011;6287;50.984;7.022;2022-11-15T13:46:15;1.70;;;1.23;;
12445;SDS011;6287;50.984;7.022;2022-11-15T13:48:46;3.13;;;1.00;;
12445;SDS011;6287;50.984;7.022;2022-11-15T13:51:21;1.30;;;1.20;;
12445;SDS011;6287;50.984;7.022;2022-11-15T13:54:10;0.83;;;0.80;;
12445;SDS011;6287;50.984;7.022;2022-11-15T13:56:55;1.13;;;0.90;;
12445;SDS011;6287;50.984;7.022;2022-11-15T14:01:55;1.00;;;1.00;;
12445;SDS011;6287;50.984;7.022;2022-11-15T14:04:26;1.80;;;0.83;;
12445;SDS011;6287;50.984;7.022;2022-11-15T14:06:57;1.80;;;1.20;;
12445;SDS011;6287;50.984;7.022;2022-11-15T14:09:29;4.30;;;0.97;;
12445;SDS011;6287;50.984;7.022;2022-11-15T14:12:20;1.10;;;1.10;;
12445;SDS011;6287;50.984;7.022;2022-11-15T14:15:45;1.30;;;1.20;;
12445;SDS011;6287;50.984;7.022;2022-11-15T14:17:55;2.90;;;1.30;;
12445;SDS011;6287;50.984;7.022;2022-11-15T14:23:01;0.90;;;0.90;;
12445;SDS011;6287;50.984;7.022;2022-11-15T14:25:54;2.93;;;1.03;;
12445;SDS011;6287;50.984;7.022;2022-11-15T14:30:49;1.00;;;1.00;;
12445;SDS011;6287;50.984;7.022;2022-11-15T14:35:53;0.93;;;0.93;;
12445;SDS011;6287;50.984;7.022;2022-11-15T14:38:24;0.83;;;0.83;;
12445;SDS011;6287;50.984;7.022;2022-11-15T14:40:53;1.07;;;1.07;;
12445;SDS011;6287;50.984;7.022;2022-11-15T14:43:20;1.17;;;1.10;;
12445;SDS011;6287;50.984;7.022;2022-11-15T14:45:46;1.17;;;0.90;;
12445;SDS011;6287;50.984;7.022;2022-11-15T14:48:11;1.97;;;1.20;;
12445;SDS011;6287;50.984;7.022;2022-11-15T14:50:40;1.17;;;1.03;;
12445;SDS011;6287;50.984;7.022;2022-11-15T14:53:05;1.30;;;1.10;;
12445;SDS011;6287;50.984;7.022;2022-11-15T14:55:32;2.13;;;0.97;;
12445;SDS011;6287;50.984;7.022;2022-11-15T14:58:03;0.93;;;0.93;;
12445;SDS011;6287;50.984;7.022;2022-11-15T15:00:30;1.63;;;1.10;;
12445;SDS011;6287;50.984;7.022;2022-11-15T15:02:58;1.13;;;1.13;;
12445;SDS011;6287;50.984;7.022;2022-11-15T15:05:26;1.40;;;1.30;;
12445;SDS011;6287;50.984;7.022;2022-11-15T15:07:58;2.27;;;1.13;;
12445;SDS011;6287;50.984;7.022;2022-11-15T15:10:24;4.23;;;1.17;;
12445;SDS011;6287;50.984;7.022;2022-11-15T15:12:57;0.87;;;0.87;;
12445;SDS011;6287;50.984;7.022;2022-11-15T15:15:29;0.90;;;0.90;;
12445;SDS011;6287;50.984;7.022;2022-11-15T15:17:58;1.77;;;0.90;;
12445;SDS011;6287;50.984;7.022;2022-11-15T15:20:23;1.57;;;1.20;;
12445;SDS011;6287;50.984;7.022;2022-11-15T15:22:49;1.20;;;1.10;;
12445;SDS011;6287;50.984;7.022;2022-11-15T15:25:21;1.30;;;1.20;;
12445;SDS011;6287;50.984;7.022;2022-11-15T15:27:47;2.83;;;1.10;;
12445;SDS011;6287;50.984;7.022;2022-11-15T15:30:13;1.67;;;1.20;;
12445;SDS011;6287;50.984;7.022;2022-11-15T15:32:38;1.30;;;1.17;;
12445;SDS011;6287;50.984;7.022;2022-11-15T15:35:10;2.17;;;1.40;;
12445;SDS011;6287;50.984;7.022;2022-11-15T15:37:40;1.50;;;1.23;;
12445;SDS011;6287;50.984;7.022;2022-11-15T15:42:40;1.57;;;1.00;;
12445;SDS011;6287;50.984;7.022;2022-11-15T15:45:07;1.20;;;1.10;;
12445;SDS011;6287;50.984;7.022;2022-11-15T15:47:33;3.23;;;1.00;;
12445;SDS011;6287;50.984;7.022;2022-11-15T15:49:58;1.63;;;1.00;;
12445;SDS011;6287;50.984;7.022;2022-11-15T15:52:27;1.43;;;1.10;;
12445;SDS011;6287;50.984;7.022;2022-11-15T15:54:53;1.33;;;1.10;;
12445;SDS011;6287;50.984;7.022;2022-11-15T15:57:20;2.10;;;1.50;;
12445;SDS011;6287;50.984;7.022;2022-11-15T15:59:49;1.63;;;1.30;;
12445;SDS011;6287;50.984;7.022;2022-11-15T16:02:14;1.50;;;1.30;;
12445;SDS011;6287;50.984;7.022;2022-11-15T16:04:42;2.37;;;1.00;;
12445;SDS011;6287;50.984;7.022;2022-11-15T16:07:12;2.03;;;1.20;;
12445;SDS011;6287;50.984;7.022;2022-11-15T16:09:45;1.03;;;1.03;;
12445;SDS011;6287;50.984;7.022;2022-11-15T16:12:33;1.30;;;1.20;;
12445;SDS011;6287;50.984;7.022;2022-11-15T16:14:59;1.77;;;1.23;;
12445;SDS011;6287;50.984;7.022;2022-11-15T16:17:37;1.27;;;1.07;;
12445;SDS011;6287;50.984;7.022;2022-11-15T16:20:05;1.63;;;1.20;;
12445;SDS011;6287;50.984;7.022;2022-11-15T16:22:34;3.10;;;1.53;;
12445;SDS011;6287;50.984;7.022;2022-11-15T16:25:02;2.60;;;1.77;;
12445;SDS011;6287;50.984;7.022;2022-11-15T16:27:30;2.77;;;1.50;;
12445;SDS011;6287;50.984;7.022;2022-11-15T16:30:01;1.30;;;1.17;;
12445;SDS011;6287;50.984;7.022;2022-11-15T16:32:28;1.00;;;1.00;;
12445;SDS011;6287;50.984;7.022;2022-11-15T16:34:54;1.00;;;0.97;;
12445;SDS011;6287;50.984;7.022;2022-11-15T16:37:23;1.27;;;1.17;;
12445;SDS011;6287;50.984;7.022;2022-11-15T16:39:52;1.90;;;1.20;;
12445;SDS011;6287;50.984;7.022;2022-11-15T16:42:17;1.00;;;1.00;;
12445;SDS011;6287;50.984;7.022;2022-11-15T16:44:45;1.67;;;1.20;;
12445;SDS011;6287;50.984;7.022;2022-11-15T16:47:17;1.40;;;1.30;;
12445;SDS011;6287;50.984;7.022;2022-11-15T16:49:46;1.50;;;1.40;;
12445;SDS011;6287;50.984;7.022;2022-11-15T16:52:16;1.90;;;1.10;;
12445;SDS011;6287;50.984;7.022;2022-11-15T16:54:44;0.90;;;0.90;;
12445;SDS011;6287;50.984;7.022;2022-11-15T16:57:12;0.97;;;0.97;;
12445;SDS011;6287;50.984;7.022;2022-11-15T16:59:37;1.30;;;1.20;;
12445;SDS011;6287;50.984;7.022;2022-11-15T17:02:03;0.97;;;0.90;;
12445;SDS011;6287;50.984;7.022;2022-11-15T17:04:37;0.87;;;0.87;;
12445;SDS011;6287;50.984;7.022;2022-11-15T17:07:05;1.43;;;1.20;;
12445;SDS011;6287;50.984;7.022;2022-11-15T17:09:33;0.93;;;0.93;;
12445;SDS011;6287;50.984;7.022;2022-11-15T17:12:03;1.20;;;1.10;;
12445;SDS011;6287;50.984;7.022;2022-11-15T17:14:32;0.97;;;0.97;;
12445;SDS011;6287;50.984;7.022;2022-11-15T17:17:00;0.93;;;0.93;;
12445;SDS011;6287;50.984;7.022;2022-11-15T17:19:26;1.20;;;1.10;;
12445;SDS011;6287;50.984;7.022;2022-11-15T17:21:54;2.20;;;1.27;;
12445;SDS011;6287;50.984;7.022;2022-11-15T17:24:20;2.10;;;1.23;;
12445;SDS011;6287;50.984;7.022;2022-11-15T17:26:45;1.20;;;1.10;;
12445;SDS011;6287;50.984;7.022;2022-11-15T17:29:11;1.33;;;1.00;;
12445;SDS011;6287;50.984;7.022;2022-11-15T17:31:36;1.00;;;0.90;;
12445;SDS011;6287;50.984;7.022;2022-11-15T17:34:05;3.90;;;1.43;;
12445;SDS011;6287;50.984;7.022;2022-11-15T17:36:35;1.50;;;1.40;;
12445;SDS011;6287;50.984;7.022;2022-11-15T17:39:04;1.70;;;1.60;;
12445;SDS011;6287;50.984;7.022;2022-11-15T17:41:32;2.13;;;1.30;;